Weather Data

Pearl Creek Farm: 8878 N Farm Road 75, Walnut Grove MO 65770

<== Previous Day (Monday 16 Mar 2009) | Next Day (Wednesday 18 Mar 2009) ==>

Summary Precipitation Data For Tuesday 17 March 2009

ElementValueUnits
Precipitation0"
Notes(none)
SourceSpringfield-Branson National Airport (SGF)

Summary Temperature Data For Tuesday 17 March 2009

ElementValueUnits
High Temperature78 oF
Low Temperature43 oF
Average Temperature60 oF
High Humidity86 %
Low Humidity27 %
Average Humidity55 %
SourceSpringfield-Branson National Airport (SGF)

Detail Temperature Data For Tuesday 17 March 2009

Date / TimeTemp (F)RH (%)Dew Pt (F)Report Date / TimeSource
2009-03-17 00:52:00 45 77 38.0 2017-12-29 19:14:24.89625 Springfield-Branson National Airport (SGF)
2009-03-17 01:52:00 46 77 39.0 2017-12-29 19:14:24.89625 Springfield-Branson National Airport (SGF)
2009-03-17 02:52:00 47 74 39.0 2017-12-29 19:14:24.89625 Springfield-Branson National Airport (SGF)
2009-03-17 03:52:00 43 82 38.0 2017-12-29 19:14:24.89625 Springfield-Branson National Airport (SGF)
2009-03-17 04:52:00 45 80 39.0 2017-12-29 19:14:24.89625 Springfield-Branson National Airport (SGF)
2009-03-17 05:52:00 43 86 39.0 2017-12-29 19:14:24.89625 Springfield-Branson National Airport (SGF)
2009-03-17 06:52:00 45 83 40.0 2017-12-29 19:14:24.89625 Springfield-Branson National Airport (SGF)
2009-03-17 07:52:00 51 77 44.0 2017-12-29 19:14:24.89625 Springfield-Branson National Airport (SGF)
2009-03-17 08:52:00 58 65 46.0 2017-12-29 19:14:24.89625 Springfield-Branson National Airport (SGF)
2009-03-17 09:52:00 63 52 45.0 2017-12-29 19:14:24.89625 Springfield-Branson National Airport (SGF)
2009-03-17 10:52:00 68 47 47.0 2017-12-29 19:14:24.89625 Springfield-Branson National Airport (SGF)
2009-03-17 11:52:00 73 38 46.0 2017-12-29 19:14:24.89625 Springfield-Branson National Airport (SGF)
2009-03-17 12:52:00 75 31 42.0 2017-12-29 19:14:24.89625 Springfield-Branson National Airport (SGF)
2009-03-17 13:52:00 77 28 41.0 2017-12-29 19:14:24.89625 Springfield-Branson National Airport (SGF)
2009-03-17 14:52:00 78 27 41.0 2017-12-29 19:14:24.89625 Springfield-Branson National Airport (SGF)
2009-03-17 15:52:00 78 27 41.0 2017-12-29 19:14:24.89625 Springfield-Branson National Airport (SGF)
2009-03-17 16:52:00 77 28 41.0 2017-12-29 19:14:24.89625 Springfield-Branson National Airport (SGF)
2009-03-17 17:52:00 71 35 42.0 2017-12-29 19:14:24.89625 Springfield-Branson National Airport (SGF)
2009-03-17 18:52:00 60 47 40.0 2017-12-29 19:14:24.89625 Springfield-Branson National Airport (SGF)
2009-03-17 19:52:00 61 46 40.0 2017-12-29 19:14:24.89625 Springfield-Branson National Airport (SGF)
2009-03-17 20:52:00 61 46 40.0 2017-12-29 19:14:24.89625 Springfield-Branson National Airport (SGF)
2009-03-17 21:52:00 60 47 40.0 2017-12-29 19:14:24.89625 Springfield-Branson National Airport (SGF)
2009-03-17 22:52:00 58 53 41.0 2017-12-29 19:14:24.89625 Springfield-Branson National Airport (SGF)
2009-03-17 23:52:00 57 55 41.0 2017-12-29 19:14:24.89625 Springfield-Branson National Airport (SGF)

A total of 24 rows are displayed.